sensor_id;sensor_type;location;lat;lon;timestamp;pressure;altitude;pressure_sealevel;temperature;humidity
48718;BME280;34521;33.042;-96.586;2023-03-26T00:00:52;99040.07;;;22.40;32.85
48718;BME280;34521;33.042;-96.586;2023-03-26T00:03:17;99038.67;;;22.57;32.47
48718;BME280;34521;33.042;-96.586;2023-03-26T00:05:43;99039.74;;;21.94;33.19
48718;BME280;34521;33.042;-96.586;2023-03-26T00:08:08;99038.06;;;22.41;32.77
48718;BME280;34521;33.042;-96.586;2023-03-26T00:10:32;99040.88;;;22.13;33.41
48718;BME280;34521;33.042;-96.586;2023-03-26T00:12:57;99038.96;;;22.98;32.34
48718;BME280;34521;33.042;-96.586;2023-03-26T00:15:22;99034.88;;;22.20;33.04
48718;BME280;34521;33.042;-96.586;2023-03-26T00:17:47;99038.38;;;21.94;33.66
48718;BME280;34521;33.042;-96.586;2023-03-26T00:20:13;99039.03;;;22.05;33.83
48718;BME280;34521;33.042;-96.586;2023-03-26T00:22:37;99038.84;;;22.26;33.33
48718;BME280;34521;33.042;-96.586;2023-03-26T00:25:02;99039.53;;;22.22;33.34
48718;BME280;34521;33.042;-96.586;2023-03-26T00:27:27;99041.77;;;22.19;33.08
48718;BME280;34521;33.042;-96.586;2023-03-26T00:29:52;99043.43;;;21.73;33.65
48718;BME280;34521;33.042;-96.586;2023-03-26T00:32:17;99041.69;;;22.31;32.91
48718;BME280;34521;33.042;-96.586;2023-03-26T00:34:42;99046.02;;;21.91;34.08
48718;BME280;34521;33.042;-96.586;2023-03-26T00:37:07;99046.63;;;21.65;33.85
48718;BME280;34521;33.042;-96.586;2023-03-26T00:39:32;99044.72;;;22.27;33.07
48718;BME280;34521;33.042;-96.586;2023-03-26T00:41:58;99050.55;;;22.82;32.18
48718;BME280;34521;33.042;-96.586;2023-03-26T00:44:22;99047.47;;;23.27;31.43
48718;BME280;34521;33.042;-96.586;2023-03-26T00:46:48;99052.32;;;23.16;31.33
48718;BME280;34521;33.042;-96.586;2023-03-26T00:49:13;99047.14;;;23.57;30.66
48718;BME280;34521;33.042;-96.586;2023-03-26T00:51:38;99050.91;;;23.37;30.84
48718;BME280;34521;33.042;-96.586;2023-03-26T00:54:03;99059.59;;;22.20;32.38
48718;BME280;34521;33.042;-96.586;2023-03-26T00:56:28;99063.32;;;22.07;32.56
48718;BME280;34521;33.042;-96.586;2023-03-26T00:58:53;99064.49;;;22.65;31.94
48718;BME280;34521;33.042;-96.586;2023-03-26T01:01:21;99067.02;;;21.94;32.56
48718;BME280;34521;33.042;-96.586;2023-03-26T01:03:44;99067.83;;;21.99;32.31
48718;BME280;34521;33.042;-96.586;2023-03-26T01:06:11;99069.65;;;22.25;31.97
48718;BME280;34521;33.042;-96.586;2023-03-26T01:08:36;99070.72;;;21.79;32.51
48718;BME280;34521;33.042;-96.586;2023-03-26T01:11:01;99072.46;;;21.81;32.75
48718;BME280;34521;33.042;-96.586;2023-03-26T01:13:24;99071.82;;;21.91;32.77
48718;BME280;34521;33.042;-96.586;2023-03-26T01:15:49;99070.61;;;21.75;32.34
48718;BME280;34521;33.042;-96.586;2023-03-26T01:18:13;99072.74;;;23.52;30.23
48718;BME280;34521;33.042;-96.586;2023-03-26T01:20:39;99074.51;;;21.74;31.02
48718;BME280;34521;33.042;-96.586;2023-03-26T01:23:05;99075.64;;;21.64;31.35
48718;BME280;34521;33.042;-96.586;2023-03-26T01:25:33;99081.54;;;22.46;30.87
48718;BME280;34521;33.042;-96.586;2023-03-26T01:27:55;99085.09;;;21.57;31.95
48718;BME280;34521;33.042;-96.586;2023-03-26T01:30:26;99085.75;;;21.91;31.33
48718;BME280;34521;33.042;-96.586;2023-03-26T01:32:53;99083.34;;;22.19;31.31
48718;BME280;34521;33.042;-96.586;2023-03-26T01:35:19;99082.54;;;22.17;31.66
48718;BME280;34521;33.042;-96.586;2023-03-26T01:37:40;99081.24;;;22.52;31.02
48718;BME280;34521;33.042;-96.586;2023-03-26T01:40:03;99085.30;;;21.62;32.11
48718;BME280;34521;33.042;-96.586;2023-03-26T01:42:30;99086.50;;;22.02;31.98
48718;BME280;34521;33.042;-96.586;2023-03-26T01:44:53;99094.14;;;22.83;31.18
48718;BME280;34521;33.042;-96.586;2023-03-26T01:47:15;99100.15;;;22.56;31.53
48718;BME280;34521;33.042;-96.586;2023-03-26T01:49:40;99103.69;;;22.41;31.33
48718;BME280;34521;33.042;-96.586;2023-03-26T01:52:09;99111.62;;;21.57;32.58
48718;BME280;34521;33.042;-96.586;2023-03-26T01:54:31;99108.51;;;22.43;31.82
48718;BME280;34521;33.042;-96.586;2023-03-26T01:57:02;99114.80;;;21.96;32.13
48718;BME280;34521;33.042;-96.586;2023-03-26T01:59:30;99116.81;;;21.77;31.99
48718;BME280;34521;33.042;-96.586;2023-03-26T02:01:51;99122.91;;;22.12;31.67
48718;BME280;34521;33.042;-96.586;2023-03-26T02:04:17;99127.39;;;21.99;31.75
48718;BME280;34521;33.042;-96.586;2023-03-26T02:06:38;99133.55;;;21.82;32.19
48718;BME280;34521;33.042;-96.586;2023-03-26T02:09:03;99137.03;;;21.68;32.32
48718;BME280;34521;33.042;-96.586;2023-03-26T02:11:25;99139.27;;;21.65;32.06
48718;BME280;34521;33.042;-96.586;2023-03-26T02:13:50;99143.02;;;21.90;32.15
48718;BME280;34521;33.042;-96.586;2023-03-26T02:16:16;99144.11;;;22.38;30.48
48718;BME280;34521;33.042;-96.586;2023-03-26T02:18:40;99145.37;;;22.48;30.01
48718;BME280;34521;33.042;-96.586;2023-03-26T02:21:07;99148.03;;;22.11;30.81
48718;BME280;34521;33.042;-96.586;2023-03-26T02:23:30;99152.88;;;22.23;30.77
48718;BME280;34521;33.042;-96.586;2023-03-26T02:25:55;99157.45;;;22.42;30.77
48718;BME280;34521;33.042;-96.586;2023-03-26T02:28:20;99168.75;;;21.68;31.35
48718;BME280;34521;33.042;-96.586;2023-03-26T02:30:45;99172.53;;;21.60;31.68
48718;BME280;34521;33.042;-96.586;2023-03-26T02:33:10;99173.52;;;21.87;31.14
48718;BME280;34521;33.042;-96.586;2023-03-26T02:35:35;99181.27;;;21.54;31.83
48718;BME280;34521;33.042;-96.586;2023-03-26T02:38:00;99186.11;;;21.42;31.94
48718;BME280;34521;33.042;-96.586;2023-03-26T02:40:26;99190.00;;;21.53;32.06
48718;BME280;34521;33.042;-96.586;2023-03-26T02:42:50;99188.43;;;22.83;30.60
48718;BME280;34521;33.042;-96.586;2023-03-26T02:45:15;99189.34;;;22.30;30.70
48718;BME280;34521;33.042;-96.586;2023-03-26T02:47:41;99199.54;;;22.49;30.32
48718;BME280;34521;33.042;-96.586;2023-03-26T02:50:07;99198.35;;;22.58;30.51
48718;BME280;34521;33.042;-96.586;2023-03-26T02:52:31;99202.97;;;22.32;30.84
48718;BME280;34521;33.042;-96.586;2023-03-26T02:54:57;99209.34;;;21.38;31.60
48718;BME280;34521;33.042;-96.586;2023-03-26T02:57:22;99213.88;;;21.65;31.68
48718;BME280;34521;33.042;-96.586;2023-03-26T02:59:46;99216.69;;;21.94;31.49
48718;BME280;34521;33.042;-96.586;2023-03-26T03:02:11;99223.12;;;21.80;31.62
48718;BME280;34521;33.042;-96.586;2023-03-26T03:04:36;99225.28;;;22.72;30.68
48718;BME280;34521;33.042;-96.586;2023-03-26T03:07:02;99229.32;;;22.75;30.90
48718;BME280;34521;33.042;-96.586;2023-03-26T03:09:26;99236.95;;;22.14;31.28
48718;BME280;34521;33.042;-96.586;2023-03-26T03:11:52;99239.65;;;21.73;31.50
48718;BME280;34521;33.042;-96.586;2023-03-26T03:14:17;99238.45;;;22.40;31.00
48718;BME280;34521;33.042;-96.586;2023-03-26T03:16:42;99241.13;;;22.99;30.66
48718;BME280;34521;33.042;-96.586;2023-03-26T03:19:07;99241.71;;;22.96;30.44
48718;BME280;34521;33.042;-96.586;2023-03-26T03:21:32;99248.10;;;22.65;30.88
48718;BME280;34521;33.042;-96.586;2023-03-26T03:23:57;99253.88;;;22.63;31.15
48718;BME280;34521;33.042;-96.586;2023-03-26T03:26:24;99254.21;;;22.70;30.76
48718;BME280;34521;33.042;-96.586;2023-03-26T03:28:48;99253.36;;;21.87;31.46
48718;BME280;34521;33.042;-96.586;2023-03-26T03:31:13;99253.87;;;22.52;31.00
48718;BME280;34521;33.042;-96.586;2023-03-26T03:33:37;99260.33;;;21.91;31.90
48718;BME280;34521;33.042;-96.586;2023-03-26T03:36:03;99261.69;;;22.09;31.85
48718;BME280;34521;33.042;-96.586;2023-03-26T03:38:28;99262.42;;;22.02;31.52
48718;BME280;34521;33.042;-96.586;2023-03-26T03:40:53;99259.01;;;22.45;30.75
48718;BME280;34521;33.042;-96.586;2023-03-26T03:43:18;99255.50;;;22.27;30.57
48718;BME280;34521;33.042;-96.586;2023-03-26T03:45:42;99257.25;;;22.67;29.98
48718;BME280;34521;33.042;-96.586;2023-03-26T03:48:08;99258.86;;;22.90;30.03
48718;BME280;34521;33.042;-96.586;2023-03-26T03:50:33;99258.43;;;22.00;30.83
48718;BME280;34521;33.042;-96.586;2023-03-26T03:52:58;99256.60;;;22.71;30.39
48718;BME280;34521;33.042;-96.586;2023-03-26T03:55:24;99254.19;;;22.03;30.90
48718;BME280;34521;33.042;-96.586;2023-03-26T03:57:48;99257.24;;;22.06;31.18
48718;BME280;34521;33.042;-96.586;2023-03-26T04:00:15;99261.47;;;21.93;31.03
48718;BME280;34521;33.042;-96.586;2023-03-26T04:02:39;99259.36;;;22.17;30.75
48718;BME280;34521;33.042;-96.586;2023-03-26T04:05:05;99263.18;;;21.81;31.52
48718;BME280;34521;33.042;-96.586;2023-03-26T04:07:29;99261.47;;;22.61;30.96
48718;BME280;34521;33.042;-96.586;2023-03-26T04:09:54;99263.81;;;21.79;31.46
48718;BME280;34521;33.042;-96.586;2023-03-26T04:12:19;99263.53;;;22.43;30.61
48718;BME280;34521;33.042;-96.586;2023-03-26T04:14:44;99262.43;;;22.56;30.76
48718;BME280;34521;33.042;-96.586;2023-03-26T04:17:10;99260.46;;;23.29;30.00
48718;BME280;34521;33.042;-96.586;2023-03-26T04:19:35;99262.37;;;23.00;30.26
48718;BME280;34521;33.042;-96.586;2023-03-26T04:22:00;99267.85;;;21.87;31.40
48718;BME280;34521;33.042;-96.586;2023-03-26T04:24:24;99263.62;;;20.88;32.94
48718;BME280;34521;33.042;-96.586;2023-03-26T04:26:49;99255.38;;;21.06;32.88
48718;BME280;34521;33.042;-96.586;2023-03-26T04:29:15;99252.16;;;20.63;33.44
48718;BME280;34521;33.042;-96.586;2023-03-26T04:31:40;99251.28;;;20.92;33.06
48718;BME280;34521;33.042;-96.586;2023-03-26T04:34:08;99253.62;;;20.25;34.29
48718;BME280;34521;33.042;-96.586;2023-03-26T04:36:30;99254.28;;;21.31;32.88
48718;BME280;34521;33.042;-96.586;2023-03-26T04:38:55;99260.79;;;21.68;31.85
48718;BME280;34521;33.042;-96.586;2023-03-26T04:41:20;99265.37;;;21.67;31.39
48718;BME280;34521;33.042;-96.586;2023-03-26T04:43:45;99265.49;;;21.33;31.67
48718;BME280;34521;33.042;-96.586;2023-03-26T04:46:10;99266.39;;;21.61;31.88
48718;BME280;34521;33.042;-96.586;2023-03-26T04:48:35;99263.27;;;20.80;32.56
48718;BME280;34521;33.042;-96.586;2023-03-26T04:51:00;99262.63;;;20.81;32.91
48718;BME280;34521;33.042;-96.586;2023-03-26T04:53:25;99262.06;;;20.43;33.47
48718;BME280;34521;33.042;-96.586;2023-03-26T04:55:54;99260.42;;;20.40;33.40
48718;BME280;34521;33.042;-96.586;2023-03-26T04:58:15;99261.40;;;20.99;32.97
48718;BME280;34521;33.042;-96.586;2023-03-26T05:00:40;99262.85;;;20.80;33.11
48718;BME280;34521;33.042;-96.586;2023-03-26T05:03:07;99261.14;;;20.74;33.28
48718;BME280;34521;33.042;-96.586;2023-03-26T05:05:30;99258.34;;;20.08;34.13
48718;BME280;34521;33.042;-96.586;2023-03-26T05:07:56;99256.97;;;20.08;34.18
48718;BME280;34521;33.042;-96.586;2023-03-26T05:10:21;99251.36;;;21.06;33.00
48718;BME280;34521;33.042;-96.586;2023-03-26T05:12:46;99246.19;;;20.35;33.85
48718;BME280;34521;33.042;-96.586;2023-03-26T05:15:12;99242.84;;;20.72;33.45
48718;BME280;34521;33.042;-96.586;2023-03-26T05:17:35;99235.43;;;20.75;33.37
48718;BME280;34521;33.042;-96.586;2023-03-26T05:20:01;99231.64;;;20.63;33.48
48718;BME280;34521;33.042;-96.586;2023-03-26T05:22:26;99228.73;;;20.97;33.06
48718;BME280;34521;33.042;-96.586;2023-03-26T05:24:51;99234.16;;;21.23;32.69
48718;BME280;34521;33.042;-96.586;2023-03-26T05:27:16;99235.43;;;20.77;33.24
48718;BME280;34521;33.042;-96.586;2023-03-26T05:29:41;99235.99;;;20.99;32.99
48718;BME280;34521;33.042;-96.586;2023-03-26T05:32:07;99234.56;;;20.68;33.38
48718;BME280;34521;33.042;-96.586;2023-03-26T05:34:31;99237.20;;;21.59;32.22
48718;BME280;34521;33.042;-96.586;2023-03-26T05:36:56;99237.29;;;21.36;32.26
48718;BME280;34521;33.042;-96.586;2023-03-26T05:39:21;99235.57;;;21.45;31.79
48718;BME280;34521;33.042;-96.586;2023-03-26T05:41:46;99235.79;;;20.96;32.05
48718;BME280;34521;33.042;-96.586;2023-03-26T05:44:11;99236.58;;;21.58;31.51
48718;BME280;34521;33.042;-96.586;2023-03-26T05:46:36;99234.61;;;21.32;31.81
48718;BME280;34521;33.042;-96.586;2023-03-26T05:49:01;99230.00;;;20.80;32.45
48718;BME280;34521;33.042;-96.586;2023-03-26T05:51:26;99229.52;;;20.29;33.27
48718;BME280;34521;33.042;-96.586;2023-03-26T05:53:51;99229.28;;;21.15;32.30
48718;BME280;34521;33.042;-96.586;2023-03-26T05:56:16;99224.14;;;20.91;32.58
48718;BME280;34521;33.042;-96.586;2023-03-26T05:58:41;99223.58;;;20.86;32.62
48718;BME280;34521;33.042;-96.586;2023-03-26T06:01:08;99225.72;;;20.15;33.53
48718;BME280;34521;33.042;-96.586;2023-03-26T06:03:32;99222.55;;;20.68;32.88
48718;BME280;34521;33.042;-96.586;2023-03-26T06:05:56;99222.23;;;20.56;33.09
48718;BME280;34521;33.042;-96.586;2023-03-26T06:08:21;99224.72;;;21.21;32.28
48718;BME280;34521;33.042;-96.586;2023-03-26T06:10:47;99222.57;;;20.84;32.64
48718;BME280;34521;33.042;-96.586;2023-03-26T06:13:11;99220.84;;;20.58;32.94
48718;BME280;34521;33.042;-96.586;2023-03-26T06:15:37;99221.09;;;20.76;32.71
48718;BME280;34521;33.042;-96.586;2023-03-26T06:18:02;99224.73;;;20.70;33.17
48718;BME280;34521;33.042;-96.586;2023-03-26T06:20:27;99223.84;;;20.43;33.18
48718;BME280;34521;33.042;-96.586;2023-03-26T06:22:52;99225.00;;;21.02;32.44
48718;BME280;34521;33.042;-96.586;2023-03-26T06:25:17;99229.39;;;21.87;31.48
48718;BME280;34521;33.042;-96.586;2023-03-26T06:27:42;99232.47;;;21.04;32.29
48718;BME280;34521;33.042;-96.586;2023-03-26T06:30:08;99228.85;;;20.82;32.66
48718;BME280;34521;33.042;-96.586;2023-03-26T06:32:31;99223.41;;;21.55;31.81
48718;BME280;34521;33.042;-96.586;2023-03-26T06:34:57;99220.00;;;20.96;31.89
48718;BME280;34521;33.042;-96.586;2023-03-26T06:37:22;99217.59;;;21.55;31.13
48718;BME280;34521;33.042;-96.586;2023-03-26T06:39:47;99215.07;;;21.81;30.61
48718;BME280;34521;33.042;-96.586;2023-03-26T06:42:12;99215.15;;;21.60;30.92
48718;BME280;34521;33.042;-96.586;2023-03-26T06:44:37;99213.28;;;21.53;30.73
48718;BME280;34521;33.042;-96.586;2023-03-26T06:47:02;99211.21;;;21.31;31.25
48718;BME280;34521;33.042;-96.586;2023-03-26T06:49:27;99212.97;;;21.53;31.19
48718;BME280;34521;33.042;-96.586;2023-03-26T06:51:52;99210.38;;;21.41;31.34
48718;BME280;34521;33.042;-96.586;2023-03-26T06:54:18;99211.54;;;21.12;31.71
48718;BME280;34521;33.042;-96.586;2023-03-26T06:56:42;99214.70;;;20.82;31.99
48718;BME280;34521;33.042;-96.586;2023-03-26T06:59:07;99217.28;;;20.69;32.13
48718;BME280;34521;33.042;-96.586;2023-03-26T07:01:32;99215.81;;;20.49;32.37
48718;BME280;34521;33.042;-96.586;2023-03-26T07:03:57;99217.15;;;21.25;31.52
48718;BME280;34521;33.042;-96.586;2023-03-26T07:06:22;99213.61;;;21.02;31.77
48718;BME280;34521;33.042;-96.586;2023-03-26T07:08:47;99208.28;;;21.07;31.78
48718;BME280;34521;33.042;-96.586;2023-03-26T07:11:12;99201.94;;;20.64;32.22
48718;BME280;34521;33.042;-96.586;2023-03-26T07:13:38;99202.08;;;21.09;31.75
48718;BME280;34521;33.042;-96.586;2023-03-26T07:16:08;99201.22;;;21.41;31.33
48718;BME280;34521;33.042;-96.586;2023-03-26T07:18:28;99197.88;;;21.22;31.56
48718;BME280;34521;33.042;-96.586;2023-03-26T07:20:53;99192.19;;;20.74;32.02
48718;BME280;34521;33.042;-96.586;2023-03-26T07:23:18;99191.82;;;21.36;31.34
48718;BME280;34521;33.042;-96.586;2023-03-26T07:25:44;99187.83;;;19.96;32.70
48718;BME280;34521;33.042;-96.586;2023-03-26T07:28:17;99185.90;;;20.09;32.58
48718;BME280;34521;33.042;-96.586;2023-03-26T07:30:44;99185.66;;;20.75;32.23
48718;BME280;34521;33.042;-96.586;2023-03-26T07:33:02;99182.31;;;21.20;31.37
48718;BME280;34521;33.042;-96.586;2023-03-26T07:35:27;99175.35;;;20.14;31.94
48718;BME280;34521;33.042;-96.586;2023-03-26T07:37:56;99175.54;;;20.99;31.27
48718;BME280;34521;33.042;-96.586;2023-03-26T07:40:22;99174.87;;;20.73;31.16
48718;BME280;34521;33.042;-96.586;2023-03-26T07:42:50;99169.92;;;22.05;29.84
48718;BME280;34521;33.042;-96.586;2023-03-26T07:45:11;99168.66;;;20.67;31.28
48718;BME280;34521;33.042;-96.586;2023-03-26T07:47:31;99169.63;;;20.46;31.67
48718;BME280;34521;33.042;-96.586;2023-03-26T07:49:55;99171.42;;;21.03;31.10
48718;BME280;34521;33.042;-96.586;2023-03-26T07:52:19;99171.37;;;19.87;32.58
48718;BME280;34521;33.042;-96.586;2023-03-26T07:54:44;99167.66;;;20.34;32.68
48718;BME280;34521;33.042;-96.586;2023-03-26T07:57:15;99170.53;;;20.46;32.50
48718;BME280;34521;33.042;-96.586;2023-03-26T07:59:37;99173.84;;;20.50;32.10
48718;BME280;34521;33.042;-96.586;2023-03-26T08:02:17;99173.93;;;20.95;31.66
48718;BME280;34521;33.042;-96.586;2023-03-26T08:04:40;99175.59;;;19.98;32.41
48718;BME280;34521;33.042;-96.586;2023-03-26T08:06:55;99174.41;;;20.30;32.11
48718;BME280;34521;33.042;-96.586;2023-03-26T08:09:18;99172.67;;;20.56;32.12
48718;BME280;34521;33.042;-96.586;2023-03-26T08:11:47;99176.35;;;19.80;32.78
48718;BME280;34521;33.042;-96.586;2023-03-26T08:14:15;99183.32;;;19.82;33.49
48718;BME280;34521;33.042;-96.586;2023-03-26T08:16:34;99184.60;;;19.86;32.68
48718;BME280;34521;33.042;-96.586;2023-03-26T08:18:58;99182.12;;;20.88;32.02
48718;BME280;34521;33.042;-96.586;2023-03-26T08:21:22;99181.50;;;20.63;31.95
48718;BME280;34521;33.042;-96.586;2023-03-26T08:23:57;99180.55;;;20.58;31.79
48718;BME280;34521;33.042;-96.586;2023-03-26T08:26:12;99179.82;;;20.96;31.36
48718;BME280;34521;33.042;-96.586;2023-03-26T08:28:44;99179.42;;;20.49;31.83
48718;BME280;34521;33.042;-96.586;2023-03-26T08:31:00;99183.16;;;21.28;31.02
48718;BME280;34521;33.042;-96.586;2023-03-26T08:33:26;99178.41;;;19.95;32.49
48718;BME280;34521;33.042;-96.586;2023-03-26T08:35:50;99177.61;;;20.11;32.04
48718;BME280;34521;33.042;-96.586;2023-03-26T08:38:16;99173.16;;;21.61;30.31
48718;BME280;34521;33.042;-96.586;2023-03-26T08:43:19;99170.76;;;21.57;29.86
48718;BME280;34521;33.042;-96.586;2023-03-26T08:48:08;99168.87;;;20.21;31.75
48718;BME280;34521;33.042;-96.586;2023-03-26T08:50:35;99172.80;;;21.03;30.95
48718;BME280;34521;33.042;-96.586;2023-03-26T09:02:41;99169.27;;;20.66;31.65
48718;BME280;34521;33.042;-96.586;2023-03-26T09:17:12;99149.79;;;20.35;31.86
48718;BME280;34521;33.042;-96.586;2023-03-26T09:24:20;99152.55;;;20.29;32.02
48718;BME280;34521;33.042;-96.586;2023-03-26T09:26:44;99149.07;;;20.02;31.84
48718;BME280;34521;33.042;-96.586;2023-03-26T09:31:43;99154.23;;;20.26;31.68
48718;BME280;34521;33.042;-96.586;2023-03-26T09:33:55;99159.54;;;20.73;30.71
48718;BME280;34521;33.042;-96.586;2023-03-26T09:36:22;99155.51;;;20.51;30.99
48718;BME280;34521;33.042;-96.586;2023-03-26T09:38:43;99152.68;;;20.03;31.50
48718;BME280;34521;33.042;-96.586;2023-03-26T09:41:12;99154.06;;;20.12;30.89
48718;BME280;34521;33.042;-96.586;2023-03-26T09:43:46;99155.45;;;19.72;31.61
48718;BME280;34521;33.042;-96.586;2023-03-26T09:46:06;99155.92;;;19.77;31.73
48718;BME280;34521;33.042;-96.586;2023-03-26T09:48:34;99157.61;;;19.82;31.72
48718;BME280;34521;33.042;-96.586;2023-03-26T09:50:56;99160.06;;;19.98;32.18
48718;BME280;34521;33.042;-96.586;2023-03-26T09:53:21;99159.10;;;20.45;31.17
48718;BME280;34521;33.042;-96.586;2023-03-26T09:55:44;99161.61;;;20.69;31.19
48718;BME280;34521;33.042;-96.586;2023-03-26T10:00:30;99173.98;;;19.84;32.40
48718;BME280;34521;33.042;-96.586;2023-03-26T10:03:10;99177.57;;;20.63;31.60
48718;BME280;34521;33.042;-96.586;2023-03-26T10:05:26;99181.54;;;19.77;32.32
48718;BME280;34521;33.042;-96.586;2023-03-26T10:07:52;99179.32;;;20.27;31.74
48718;BME280;34521;33.042;-96.586;2023-03-26T10:10:12;99178.97;;;20.11;31.84
48718;BME280;34521;33.042;-96.586;2023-03-26T10:12:35;99175.96;;;20.24;31.82
48718;BME280;34521;33.042;-96.586;2023-03-26T10:15:08;99179.67;;;19.06;33.67
48718;BME280;34521;33.042;-96.586;2023-03-26T10:17:35;99178.45;;;18.89;33.96
48718;BME280;34521;33.042;-96.586;2023-03-26T10:19:57;99173.52;;;19.85;32.55
48718;BME280;34521;33.042;-96.586;2023-03-26T10:22:21;99175.80;;;19.54;32.76
48718;BME280;34521;33.042;-96.586;2023-03-26T10:27:11;99180.94;;;19.98;32.22
48718;BME280;34521;33.042;-96.586;2023-03-26T10:31:55;99182.66;;;20.27;31.15
48718;BME280;34521;33.042;-96.586;2023-03-26T10:34:30;99189.14;;;21.13;30.31
48718;BME280;34521;33.042;-96.586;2023-03-26T10:36:49;99194.73;;;19.84;31.47
48718;BME280;34521;33.042;-96.586;2023-03-26T10:39:24;99196.61;;;19.78;31.33
48718;BME280;34521;33.042;-96.586;2023-03-26T10:41:40;99192.34;;;20.35;30.69
48718;BME280;34521;33.042;-96.586;2023-03-26T10:44:12;99193.17;;;20.13;31.12
48718;BME280;34521;33.042;-96.586;2023-03-26T10:48:56;99193.04;;;19.29;32.21
48718;BME280;34521;33.042;-96.586;2023-03-26T10:51:28;99193.39;;;19.57;31.94
48718;BME280;34521;33.042;-96.586;2023-03-26T10:53:42;99192.01;;;19.72;31.97
48718;BME280;34521;33.042;-96.586;2023-03-26T10:56:08;99195.00;;;19.36;32.15
48718;BME280;34521;33.042;-96.586;2023-03-26T10:58:28;99196.27;;;19.46;32.02
48718;BME280;34521;33.042;-96.586;2023-03-26T11:00:56;99199.11;;;19.59;32.17
48718;BME280;34521;33.042;-96.586;2023-03-26T11:03:31;99202.23;;;19.90;31.82
48718;BME280;34521;33.042;-96.586;2023-03-26T11:05:49;99208.23;;;19.25;32.55
48718;BME280;34521;33.042;-96.586;2023-03-26T11:08:11;99214.42;;;19.19;32.70
48718;BME280;34521;33.042;-96.586;2023-03-26T11:10:42;99220.14;;;18.72;32.93
48718;BME280;34521;33.042;-96.586;2023-03-26T11:13:04;99223.88;;;19.80;31.90
48718;BME280;34521;33.042;-96.586;2023-03-26T11:15:26;99230.41;;;19.46;32.06
48718;BME280;34521;33.042;-96.586;2023-03-26T11:17:56;99229.25;;;19.70;31.62
48718;BME280;34521;33.042;-96.586;2023-03-26T11:20:17;99228.19;;;19.31;32.03
48718;BME280;34521;33.042;-96.586;2023-03-26T11:22:47;99230.78;;;18.55;33.07
48718;BME280;34521;33.042;-96.586;2023-03-26T11:27:38;99234.21;;;19.35;32.31
48718;BME280;34521;33.042;-96.586;2023-03-26T11:30:00;99238.30;;;19.74;31.82
48718;BME280;34521;33.042;-96.586;2023-03-26T11:32:22;99239.31;;;19.83;31.19
48718;BME280;34521;33.042;-96.586;2023-03-26T11:34:48;99244.95;;;19.81;30.75
48718;BME280;34521;33.042;-96.586;2023-03-26T11:37:15;99248.37;;;20.01;30.47
48718;BME280;34521;33.042;-96.586;2023-03-26T11:39:40;99249.89;;;20.05;30.33
48718;BME280;34521;33.042;-96.586;2023-03-26T11:42:04;99251.68;;;19.67;30.88
48718;BME280;34521;33.042;-96.586;2023-03-26T11:44:26;99252.67;;;19.65;31.25
48718;BME280;34521;33.042;-96.586;2023-03-26T11:46:54;99252.80;;;19.93;30.84
48718;BME280;34521;33.042;-96.586;2023-03-26T11:49:17;99254.06;;;19.41;31.54
48718;BME280;34521;33.042;-96.586;2023-03-26T11:51:41;99255.97;;;19.42;31.89
48718;BME280;34521;33.042;-96.586;2023-03-26T11:54:06;99258.66;;;19.44;31.84
48718;BME280;34521;33.042;-96.586;2023-03-26T11:56:32;99261.99;;;19.19;31.85
48718;BME280;34521;33.042;-96.586;2023-03-26T11:58:58;99265.29;;;18.93;32.10
48718;BME280;34521;33.042;-96.586;2023-03-26T12:01:25;99266.97;;;19.49;31.47
48718;BME280;34521;33.042;-96.586;2023-03-26T12:03:55;99272.12;;;19.68;31.41
48718;BME280;34521;33.042;-96.586;2023-03-26T12:06:21;99275.93;;;18.82;32.16
48718;BME280;34521;33.042;-96.586;2023-03-26T12:08:38;99276.74;;;19.37;31.76
48718;BME280;34521;33.042;-96.586;2023-03-26T12:11:04;99277.63;;;19.19;31.88
48718;BME280;34521;33.042;-96.586;2023-03-26T12:13:32;99271.22;;;19.42;31.49
48718;BME280;34521;33.042;-96.586;2023-03-26T12:15:50;99268.74;;;18.75;32.51
48718;BME280;34521;33.042;-96.586;2023-03-26T12:18:24;99266.18;;;18.77;32.22
48718;BME280;34521;33.042;-96.586;2023-03-26T12:20:40;99261.68;;;18.75;32.24
48718;BME280;34521;33.042;-96.586;2023-03-26T12:23:12;99263.44;;;19.02;31.88
48718;BME280;34521;33.042;-96.586;2023-03-26T12:25:32;99270.43;;;19.87;31.17
48718;BME280;34521;33.042;-96.586;2023-03-26T12:27:59;99277.72;;;18.43;32.37
48718;BME280;34521;33.042;-96.586;2023-03-26T12:30:23;99277.93;;;19.76;31.04
48718;BME280;34521;33.042;-96.586;2023-03-26T12:32:47;99283.83;;;18.88;31.27
48718;BME280;34521;33.042;-96.586;2023-03-26T12:35:16;99285.09;;;20.32;29.93
48718;BME280;34521;33.042;-96.586;2023-03-26T12:37:37;99297.90;;;20.46;29.58
48718;BME280;34521;33.042;-96.586;2023-03-26T12:40:06;99304.74;;;19.18;30.92
48718;BME280;34521;33.042;-96.586;2023-03-26T12:42:27;99307.26;;;19.45;31.00
48718;BME280;34521;33.042;-96.586;2023-03-26T12:44:51;99316.25;;;18.81;31.80
48718;BME280;34521;33.042;-96.586;2023-03-26T12:47:19;99322.10;;;19.31;30.86
48718;BME280;34521;33.042;-96.586;2023-03-26T12:49:41;99329.91;;;19.05;31.41
48718;BME280;34521;33.042;-96.586;2023-03-26T12:52:22;99337.47;;;19.73;30.62
48718;BME280;34521;33.042;-96.586;2023-03-26T12:54:39;99350.48;;;18.90;31.64
48718;BME280;34521;33.042;-96.586;2023-03-26T12:57:06;99354.97;;;19.24;31.42
48718;BME280;34521;33.042;-96.586;2023-03-26T12:59:28;99368.90;;;19.76;30.87
48718;BME280;34521;33.042;-96.586;2023-03-26T13:01:54;99376.08;;;19.28;31.39
48718;BME280;34521;33.042;-96.586;2023-03-26T13:04:25;99378.81;;;19.03;31.39
48718;BME280;34521;33.042;-96.586;2023-03-26T13:06:40;99382.04;;;19.49;30.87
48718;BME280;34521;33.042;-96.586;2023-03-26T13:09:17;99383.82;;;19.43;30.95
48718;BME280;34521;33.042;-96.586;2023-03-26T13:11:32;99380.52;;;19.32;31.32
48718;BME280;34521;33.042;-96.586;2023-03-26T13:14:01;99377.44;;;19.11;31.62